PWSweather.com
Personal Weather Stations
Station Observations
WILS01
Leuven, WilseleBE 3012

LeuvenWilseleBE 3012

Lat: 50.89518, Lon: 4.69741

Elevation: 120

Station Type: DAVIS VP2

Latest ConditionsUpdated 11:08:29 PM GMT+01:01 Monday, Jun 27, 2016
Currently Today's Max Today's Min Today's Average
Temperature 60.8°F16.0°C 70.9°F21.6°C 54.7°F12.6°C 61.0°F16.1°C
Dew Point 58.5°F14.7°C 63.1°F17.3°C 52.3°F11.3°C 57.6°F14.2°C
Winds Calm Calm 4.9 mph W7.9 kmh W - 1.9 mph 3.1 kmh
Wind Gusts -- 5.6 mph9.0 kmh - -
Humidity 92% 95% 73% 89%
Pressure 30.09 in1019.0 mb 30.10 in1019.3 mb 30.04 in1017.3 mb -
Hour Temp Dew Point Humidity Winds Wind Gusts Pressure Precip Precip Rate Daily Precip Total
11:08 PM 60.8°F16.0°C 58.5°F14.7°C 92% Calm Calm -- 30.09 in1019.0 mb - 0.00 in0.0 mm 0.51 in13.0 mm
10:58 PM 60.6°F15.9°C 58.3°F14.6°C 92% Calm Calm -- 30.09 in1019.0 mb - 0.00 in0.0 mm 0.09 in2.3 mm
10:47 PM 60.8°F16.0°C 58.5°F14.7°C 92% Calm Calm -- 30.09 in1019.0 mb - 0.00 in0.0 mm 0.09 in2.3 mm
10:37 PM 60.8°F16.0°C 58.1°F14.5°C 91% Calm Calm -- 30.10 in1019.3 mb - 0.00 in0.0 mm 0.09 in2.3 mm
10:27 PM 61.0°F16.1°C 58.3°F14.6°C 91% Calm Calm -- 30.09 in1019.0 mb - 0.00 in0.0 mm 0.09 in2.3 mm
10:17 PM 61.2°F16.2°C 58.5°F14.7°C 91% Calm Calm -- 30.09 in1019.0 mb - 0.00 in0.0 mm 0.09 in2.3 mm
10:06 PM 61.3°F16.3°C 58.6°F14.8°C 91% Calm Calm -- 30.09 in1019.0 mb - 0.00 in0.0 mm 0.09 in2.3 mm
09:56 PM 61.5°F16.4°C 58.6°F14.8°C 90% Calm Calm -- 30.09 in1019.0 mb - 0.00 in0.0 mm 0.09 in2.3 mm
09:45 PM 61.7°F16.5°C 58.8°F14.9°C 90% Calm Calm -- 30.09 in1019.0 mb - 0.00 in0.0 mm 0.09 in2.3 mm
09:35 PM 61.9°F16.6°C 59.0°F15.0°C 90% Calm Calm -- 30.09 in1019.0 mb - 0.00 in0.0 mm 0.09 in2.3 mm
09:25 PM 62.2°F16.8°C 59.0°F15.0°C 89% Calm Calm -- 30.09 in1019.0 mb - 0.00 in0.0 mm 0.09 in2.3 mm
09:15 PM 62.4°F16.9°C 58.8°F14.9°C 88% Calm Calm -- 30.08 in1018.6 mb - 0.00 in0.0 mm 0.09 in2.3 mm
09:04 PM 62.8°F17.1°C 59.2°F15.1°C 88% Calm Calm -- 30.08 in1018.6 mb - 0.00 in0.0 mm 0.09 in2.3 mm
08:54 PM 63.0°F17.2°C 59.0°F15.0°C 87% Calm Calm -- 30.08 in1018.6 mb - 0.00 in0.0 mm 0.09 in2.3 mm
08:44 PM 63.3°F17.4°C 59.4°F15.2°C 87% Calm Calm -- 30.08 in1018.6 mb - 0.00 in0.0 mm 0.09 in2.3 mm
08:34 PM 63.7°F17.6°C 59.5°F15.3°C 86% Calm Calm -- 30.08 in1018.6 mb - 0.00 in0.0 mm 0.09 in2.3 mm
08:24 PM 64.0°F17.8°C 59.4°F15.2°C 85% Calm Calm -- 30.08 in1018.6 mb - 0.00 in0.0 mm 0.09 in2.3 mm
08:13 PM 64.2°F17.9°C 59.4°F15.2°C 84% Calm Calm -- 30.08 in1018.6 mb - 0.00 in0.0 mm 0.09 in2.3 mm
08:03 PM 64.8°F18.2°C 59.5°F15.3°C 83% Calm Calm -- 30.07 in1018.3 mb - 0.00 in0.0 mm 0.09 in2.3 mm
07:52 PM 64.9°F18.3°C 59.7°F15.4°C 83% Calm Calm -- 30.07 in1018.3 mb - 0.00 in0.0 mm 0.09 in2.3 mm
07:42 PM 65.1°F18.4°C 59.9°F15.5°C 83% Calm Calm -- 30.07 in1018.3 mb - 0.00 in0.0 mm 0.09 in2.3 mm
07:32 PM 65.1°F18.4°C 59.5°F15.3°C 82% Calm Calm -- 30.07 in1018.3 mb - 0.00 in0.0 mm 0.09 in2.3 mm
07:22 PM 65.1°F18.4°C 59.9°F15.5°C 83% Calm Calm -- 30.07 in1018.3 mb - 0.00 in0.0 mm 0.09 in2.3 mm
07:11 PM 64.9°F18.3°C 60.4°F15.8°C 85% Calm Calm 0.2 mph0.3 kmh 30.07 in1018.3 mb - 0.00 in0.0 mm 0.09 in2.3 mm
07:01 PM 64.9°F18.3°C 60.6°F15.9°C 86% Calm Calm -- 30.06 in1017.9 mb - 0.00 in0.0 mm 0.09 in2.3 mm
06:50 PM 64.8°F18.2°C 60.4°F15.8°C 86% 0.9 mph NW1.4 kmh NW 0.2 mph0.3 kmh 30.06 in1017.9 mb - 0.00 in0.0 mm 0.09 in2.3 mm
06:40 PM 64.8°F18.2°C 60.8°F16.0°C 87% 0.9 mph NW1.4 kmh NW 0.4 mph0.6 kmh 30.06 in1017.9 mb - 0.00 in0.0 mm 0.09 in2.3 mm
06:29 PM 64.8°F18.2°C 61.2°F16.2°C 88% 0.9 mph W1.4 kmh W 0.2 mph0.3 kmh 30.06 in1017.9 mb - 0.00 in0.0 mm 0.09 in2.3 mm
06:19 PM 64.9°F18.3°C 61.7°F16.5°C 89% Calm Calm 1.3 mph2.1 kmh 30.06 in1017.9 mb - 0.00 in0.0 mm 0.09 in2.3 mm
06:08 PM 64.6°F18.1°C 61.3°F16.3°C 89% 0.9 mph WSW1.4 kmh WSW 0.4 mph0.6 kmh 30.06 in1017.9 mb - 0.00 in0.0 mm 0.09 in2.3 mm
05:58 PM 64.8°F18.2°C 61.5°F16.4°C 89% 0.9 mph WNW1.4 kmh WNW 1.8 mph2.9 kmh 30.06 in1017.9 mb - 0.00 in0.0 mm 0.09 in2.3 mm
05:48 PM 65.1°F18.4°C 61.9°F16.6°C 89% Calm Calm 1.3 mph2.1 kmh 30.06 in1017.9 mb - 0.00 in0.0 mm 0.09 in2.3 mm
05:37 PM 65.5°F18.6°C 62.2°F16.8°C 89% 0.9 mph WNW1.4 kmh WNW 0.7 mph1.1 kmh 30.06 in1017.9 mb - 0.00 in0.0 mm 0.09 in2.3 mm
05:27 PM 65.8°F18.8°C 61.9°F16.6°C 87% 0.9 mph W1.4 kmh W 2.0 mph3.2 kmh 30.06 in1017.9 mb - 0.00 in0.0 mm 0.09 in2.3 mm
05:17 PM 66.7°F19.3°C 62.1°F16.7°C 85% 0.9 mph NW1.4 kmh NW 0.7 mph1.1 kmh 30.06 in1017.9 mb - 0.03 in0.8 mm 0.09 in2.3 mm
05:06 PM 68.0°F20.0°C 62.2°F16.8°C 82% 2.0 mph WSW3.2 kmh WSW 1.1 mph1.8 kmh 30.05 in1017.6 mb - 0.09 in2.3 mm 0.09 in2.3 mm
04:56 PM 70.9°F21.6°C 61.9°F16.6°C 73% 2.2 mph SW3.5 kmh SW 2.9 mph4.7 kmh 30.05 in1017.6 mb - 0.00 in0.0 mm 0.07 in1.8 mm
04:45 PM 70.9°F21.6°C 62.2°F16.8°C 74% 2.9 mph SW4.7 kmh SW 4.0 mph6.4 kmh 30.05 in1017.6 mb - 0.00 in0.0 mm 0.07 in1.8 mm
04:35 PM 70.7°F21.5°C 62.4°F16.9°C 75% 2.0 mph SW3.2 kmh SW 3.4 mph5.5 kmh 30.04 in1017.3 mb - 0.00 in0.0 mm 0.07 in1.8 mm
04:25 PM 70.5°F21.4°C 61.9°F16.6°C 74% 2.9 mph SSW4.7 kmh SSW 2.2 mph3.5 kmh 30.05 in1017.6 mb - 0.00 in0.0 mm 0.07 in1.8 mm
04:14 PM 70.2°F21.2°C 62.1°F16.7°C 75% 2.9 mph W4.7 kmh W 2.7 mph4.3 kmh 30.05 in1017.6 mb - 0.00 in0.0 mm 0.07 in1.8 mm
04:04 PM 69.8°F21.0°C 62.1°F16.7°C 76% 2.9 mph NNE4.7 kmh NNE 1.1 mph1.8 kmh 30.05 in1017.6 mb - 0.00 in0.0 mm 0.07 in1.8 mm
03:54 PM 69.6°F20.9°C 62.1°F16.7°C 77% 2.9 mph WSW4.7 kmh WSW 3.1 mph5.0 kmh 30.05 in1017.6 mb - 0.00 in0.0 mm 0.07 in1.8 mm
03:44 PM 69.1°F20.6°C 61.9°F16.6°C 78% 4.0 mph SW6.4 kmh SW 2.2 mph3.5 kmh 30.05 in1017.6 mb - 0.00 in0.0 mm 0.07 in1.8 mm
03:34 PM 68.5°F20.3°C 61.7°F16.5°C 79% 4.9 mph SW7.9 kmh SW 5.6 mph9.0 kmh 30.05 in1017.6 mb - 0.00 in0.0 mm 0.07 in1.8 mm
03:24 PM 68.4°F20.2°C 61.5°F16.4°C 79% 4.0 mph SW6.4 kmh SW 4.0 mph6.4 kmh 30.05 in1017.6 mb - 0.00 in0.0 mm 0.07 in1.8 mm
03:14 PM 68.4°F20.2°C 61.2°F16.2°C 78% 2.9 mph SW4.7 kmh SW 4.7 mph7.6 kmh 30.04 in1017.3 mb - 0.00 in0.0 mm 0.07 in1.8 mm
03:03 PM 68.4°F20.2°C 61.2°F16.2°C 78% 4.9 mph SW7.9 kmh SW 1.6 mph2.6 kmh 30.04 in1017.3 mb - 0.00 in0.0 mm 0.07 in1.8 mm
02:53 PM 69.1°F20.6°C 61.2°F16.2°C 76% 4.7 mph SW7.6 kmh SW 5.1 mph8.2 kmh 30.04 in1017.3 mb - 0.00 in0.0 mm 0.07 in1.8 mm
02:42 PM 69.4°F20.8°C 63.0°F17.2°C 80% 2.2 mph SW3.5 kmh SW 1.6 mph2.6 kmh 30.04 in1017.3 mb - 0.00 in0.0 mm 0.07 in1.8 mm
02:32 PM 68.5°F20.3°C 62.1°F16.7°C 80% 4.9 mph W7.9 kmh W 4.0 mph6.4 kmh 30.04 in1017.3 mb - 0.00 in0.0 mm 0.07 in1.8 mm
02:21 PM 67.5°F19.7°C 62.1°F16.7°C 83% 4.0 mph SW6.4 kmh SW 5.6 mph9.0 kmh 30.04 in1017.3 mb - 0.00 in0.0 mm 0.07 in1.8 mm
02:11 PM 66.6°F19.2°C 63.1°F17.3°C 89% 3.4 mph SSW5.5 kmh SSW 3.6 mph5.8 kmh 30.04 in1017.3 mb - 0.00 in0.0 mm 0.07 in1.8 mm
02:01 PM 65.8°F18.8°C 62.8°F17.1°C 90% 2.5 mph SSW4.0 kmh SSW 5.1 mph8.2 kmh 30.04 in1017.3 mb - 0.00 in0.0 mm 0.07 in1.8 mm
01:50 PM 64.8°F18.2°C 62.4°F16.9°C 92% 4.0 mph WSW6.4 kmh WSW 2.5 mph4.0 kmh 30.04 in1017.3 mb - 0.00 in0.0 mm 0.07 in1.8 mm
01:39 PM 64.0°F17.8°C 62.2°F16.8°C 94% 2.9 mph SW4.7 kmh SW 3.6 mph5.8 kmh 30.05 in1017.6 mb - 0.00 in0.0 mm 0.07 in1.8 mm
01:29 PM 62.8°F17.1°C 61.3°F16.3°C 95% 2.9 mph SW4.7 kmh SW 3.4 mph5.5 kmh 30.04 in1017.3 mb - 0.00 in0.0 mm 0.07 in1.8 mm
01:18 PM 62.4°F16.9°C 61.0°F16.1°C 95% 3.4 mph WSW5.5 kmh WSW 2.2 mph3.5 kmh 30.04 in1017.3 mb - 0.00 in0.0 mm 0.07 in1.8 mm
01:08 PM 62.4°F16.9°C 61.0°F16.1°C 95% 2.9 mph SSW4.7 kmh SSW 4.7 mph7.6 kmh 30.04 in1017.3 mb - 0.00 in0.0 mm 0.07 in1.8 mm
12:57 PM 62.1°F16.7°C 60.6°F15.9°C 95% 2.9 mph SSW4.7 kmh SSW 2.9 mph4.7 kmh 30.05 in1017.6 mb - 0.00 in0.0 mm 0.07 in1.8 mm
12:47 PM 61.9°F16.6°C 60.4°F15.8°C 95% 2.9 mph SW4.7 kmh SW 3.1 mph5.0 kmh 30.05 in1017.6 mb - 0.00 in0.0 mm 0.07 in1.8 mm
12:37 PM 61.9°F16.6°C 60.4°F15.8°C 95% 2.5 mph SSW4.0 kmh SSW 0.7 mph1.1 kmh 30.05 in1017.6 mb - 0.00 in0.0 mm 0.06 in1.5 mm
12:26 PM 61.7°F16.5°C 60.3°F15.7°C 95% 2.9 mph SW4.7 kmh SW 2.0 mph3.2 kmh 30.05 in1017.6 mb - 0.00 in0.0 mm 0.06 in1.5 mm
12:16 PM 61.7°F16.5°C 60.3°F15.7°C 95% 2.0 mph SW3.2 kmh SW 1.6 mph2.6 kmh 30.05 in1017.6 mb - 0.00 in0.0 mm 0.06 in1.5 mm
12:06 PM 61.7°F16.5°C 59.9°F15.5°C 94% 1.3 mph SW2.1 kmh SW 0.9 mph1.4 kmh 30.05 in1017.6 mb - 0.07 in1.8 mm 0.06 in1.5 mm
11:55 AM 61.5°F16.4°C 59.7°F15.4°C 94% 2.0 mph SSW3.2 kmh SSW 1.6 mph2.6 kmh 30.05 in1017.6 mb - 0.15 in3.8 mm 0.05 in1.3 mm
11:45 AM 61.5°F16.4°C 59.5°F15.3°C 93% 2.0 mph SW3.2 kmh SW 1.8 mph2.9 kmh 30.05 in1017.6 mb - 0.17 in4.3 mm 0.02 in0.5 mm
11:35 AM 61.3°F16.3°C 59.4°F15.2°C 93% 2.5 mph SW4.0 kmh SW 2.9 mph4.7 kmh 30.05 in1017.6 mb - 0.00 in0.0 mm 0.01 in0.3 mm
11:24 AM 61.2°F16.2°C 59.2°F15.1°C 93% 2.0 mph SW3.2 kmh SW 3.6 mph5.8 kmh 30.05 in1017.6 mb - 0.00 in0.0 mm 0.01 in0.3 mm
11:14 AM 61.2°F16.2°C 59.0°F15.0°C 92% 2.0 mph SW3.2 kmh SW 2.5 mph4.0 kmh 30.05 in1017.6 mb - 0.00 in0.0 mm 0.01 in0.3 mm
11:03 AM 61.3°F16.3°C 59.0°F15.0°C 92% 2.9 mph SW4.7 kmh SW 2.5 mph4.0 kmh 30.05 in1017.6 mb - 0.00 in0.0 mm 0.01 in0.3 mm
10:53 AM 61.5°F16.4°C 58.8°F14.9°C 91% 2.9 mph WSW4.7 kmh WSW 4.5 mph7.2 kmh 30.05 in1017.6 mb - 0.00 in0.0 mm 0.00 in0.0 mm
10:43 AM 61.3°F16.3°C 58.6°F14.8°C 91% 2.9 mph WSW4.7 kmh WSW 2.2 mph3.5 kmh 30.05 in1017.6 mb - 0.00 in0.0 mm 0.00 in0.0 mm
10:32 AM 61.2°F16.2°C 58.5°F14.7°C 91% 2.9 mph SW4.7 kmh SW 4.5 mph7.2 kmh 30.05 in1017.6 mb - 0.00 in0.0 mm 0.00 in0.0 mm
10:22 AM 61.0°F16.1°C 58.3°F14.6°C 91% 4.0 mph WSW6.4 kmh WSW 5.4 mph8.7 kmh 30.05 in1017.6 mb - 0.00 in0.0 mm 0.00 in0.0 mm
10:12 AM 61.0°F16.1°C 58.6°F14.8°C 92% 2.9 mph SW4.7 kmh SW 4.5 mph7.2 kmh 30.05 in1017.6 mb - 0.00 in0.0 mm 0.00 in0.0 mm
10:01 AM 60.8°F16.0°C 58.3°F14.6°C 91% 2.9 mph SW4.7 kmh SW 4.0 mph6.4 kmh 30.05 in1017.6 mb - 0.00 in0.0 mm 0.00 in0.0 mm
09:50 AM 60.4°F15.8°C 58.1°F14.5°C 92% 2.9 mph SW4.7 kmh SW 2.7 mph4.3 kmh 30.05 in1017.6 mb - 0.00 in0.0 mm 0.00 in0.0 mm
09:40 AM 60.4°F15.8°C 58.1°F14.5°C 92% 2.0 mph SW3.2 kmh SW 2.0 mph3.2 kmh 30.04 in1017.3 mb - 0.00 in0.0 mm 0.00 in0.0 mm
09:29 AM 60.1°F15.6°C 57.7°F14.3°C 92% 2.9 mph WSW4.7 kmh WSW 2.2 mph3.5 kmh 30.05 in1017.6 mb - 0.00 in0.0 mm 0.00 in0.0 mm
09:19 AM 59.9°F15.5°C 57.6°F14.2°C 92% 2.0 mph SW3.2 kmh SW 2.0 mph3.2 kmh 30.05 in1017.6 mb - 0.00 in0.0 mm 0.00 in0.0 mm
09:09 AM 59.5°F15.3°C 57.2°F14.0°C 92% 2.0 mph SSW3.2 kmh SSW 2.0 mph3.2 kmh 30.05 in1017.6 mb - 0.00 in0.0 mm 0.00 in0.0 mm
08:59 AM 59.2°F15.1°C 56.8°F13.8°C 92% 2.9 mph SSW4.7 kmh SSW 0.9 mph1.4 kmh 30.05 in1017.6 mb - 0.00 in0.0 mm 0.00 in0.0 mm
08:49 AM 58.8°F14.9°C 56.1°F13.4°C 91% 2.0 mph SW3.2 kmh SW 2.7 mph4.3 kmh 30.05 in1017.6 mb - 0.00 in0.0 mm 0.00 in0.0 mm
08:39 AM 58.6°F14.8°C 56.3°F13.5°C 92% 2.0 mph SW3.2 kmh SW 3.8 mph6.1 kmh 30.05 in1017.6 mb - 0.00 in0.0 mm 0.00 in0.0 mm
08:29 AM 58.5°F14.7°C 55.8°F13.2°C 91% 2.0 mph WSW3.2 kmh WSW 1.8 mph2.9 kmh 30.05 in1017.6 mb - 0.00 in0.0 mm 0.00 in0.0 mm
08:18 AM 58.3°F14.6°C 55.9°F13.3°C 92% 2.0 mph SW3.2 kmh SW 3.1 mph5.0 kmh 30.05 in1017.6 mb - 0.00 in0.0 mm 0.00 in0.0 mm
08:08 AM 58.3°F14.6°C 55.9°F13.3°C 92% 2.9 mph SW4.7 kmh SW 2.5 mph4.0 kmh 30.05 in1017.6 mb - 0.00 in0.0 mm 0.00 in0.0 mm
07:57 AM 58.1°F14.5°C 55.8°F13.2°C 92% 2.9 mph SW4.7 kmh SW 2.7 mph4.3 kmh 30.04 in1017.3 mb - 0.00 in0.0 mm 0.00 in0.0 mm
07:47 AM 57.9°F14.4°C 55.6°F13.1°C 92% 2.9 mph SW4.7 kmh SW 2.5 mph4.0 kmh 30.04 in1017.3 mb - 0.00 in0.0 mm 0.00 in0.0 mm
07:36 AM 57.7°F14.3°C 55.2°F12.9°C 91% 2.5 mph WSW4.0 kmh WSW 4.0 mph6.4 kmh 30.04 in1017.3 mb - 0.00 in0.0 mm 0.00 in0.0 mm
07:26 AM 57.4°F14.1°C 54.5°F12.5°C 90% 2.0 mph WSW3.2 kmh WSW 4.0 mph6.4 kmh 30.04 in1017.3 mb - 0.00 in0.0 mm 0.00 in0.0 mm
07:15 AM 57.4°F14.1°C 54.5°F12.5°C 90% 0.9 mph SW1.4 kmh SW 2.5 mph4.0 kmh 30.04 in1017.3 mb - 0.00 in0.0 mm 0.00 in0.0 mm
07:05 AM 57.0°F13.9°C 54.1°F12.3°C 90% 2.0 mph SW3.2 kmh SW 1.1 mph1.8 kmh 30.04 in1017.3 mb - 0.00 in0.0 mm 0.00 in0.0 mm
06:54 AM 56.8°F13.8°C 54.0°F12.2°C 90% 2.0 mph WSW3.2 kmh WSW 2.0 mph3.2 kmh 30.05 in1017.6 mb - 0.00 in0.0 mm 0.00 in0.0 mm
06:44 AM 56.7°F13.7°C 53.8°F12.1°C 90% 2.0 mph WSW3.2 kmh WSW 2.0 mph3.2 kmh 30.05 in1017.6 mb - 0.00 in0.0 mm 0.00 in0.0 mm
06:34 AM 56.5°F13.6°C 53.6°F12.0°C 90% 2.9 mph SW4.7 kmh SW 2.9 mph4.7 kmh 30.05 in1017.6 mb - 0.00 in0.0 mm 0.00 in0.0 mm
06:24 AM 56.5°F13.6°C 53.6°F12.0°C 90% 2.0 mph SW3.2 kmh SW 1.8 mph2.9 kmh 30.05 in1017.6 mb - 0.00 in0.0 mm 0.00 in0.0 mm
06:13 AM 56.3°F13.5°C 53.4°F11.9°C 90% 2.0 mph SW3.2 kmh SW 2.5 mph4.0 kmh 30.05 in1017.6 mb - 0.00 in0.0 mm 0.00 in0.0 mm
06:03 AM 56.1°F13.4°C 53.2°F11.8°C 90% 0.9 mph SW1.4 kmh SW 2.7 mph4.3 kmh 30.05 in1017.6 mb - 0.00 in0.0 mm 0.00 in0.0 mm
05:53 AM 55.9°F13.3°C 53.4°F11.9°C 91% 0.9 mph SSW1.4 kmh SSW 1.6 mph2.6 kmh 30.05 in1017.6 mb - 0.00 in0.0 mm 0.00 in0.0 mm
05:43 AM 55.9°F13.3°C 53.4°F11.9°C 91% 0.9 mph SE1.4 kmh SE 2.2 mph3.5 kmh 30.06 in1017.9 mb - 0.00 in0.0 mm 0.00 in0.0 mm
05:32 AM 55.8°F13.2°C 53.2°F11.8°C 91% 0.9 mph SW1.4 kmh SW 2.0 mph3.2 kmh 30.06 in1017.9 mb - 0.00 in0.0 mm 0.00 in0.0 mm
05:22 AM 55.8°F13.2°C 53.2°F11.8°C 91% 0.9 mph WSW1.4 kmh WSW 0.7 mph1.1 kmh 30.06 in1017.9 mb - 0.00 in0.0 mm 0.00 in0.0 mm
05:11 AM 55.8°F13.2°C 53.2°F11.8°C 91% 0.9 mph WSW1.4 kmh WSW 1.1 mph1.8 kmh 30.06 in1017.9 mb - 0.00 in0.0 mm 0.00 in0.0 mm
05:01 AM 55.6°F13.1°C 53.1°F11.7°C 91% 0.4 mph WSW0.6 kmh WSW -- 30.06 in1017.9 mb - 0.00 in0.0 mm 0.00 in0.0 mm
04:51 AM 55.6°F13.1°C 52.9°F11.6°C 90% 0.9 mph SW1.4 kmh SW 1.3 mph2.1 kmh 30.06 in1017.9 mb - 0.00 in0.0 mm 0.00 in0.0 mm
04:41 AM 55.6°F13.1°C 53.1°F11.7°C 91% 2.0 mph SW3.2 kmh SW 1.3 mph2.1 kmh 30.06 in1017.9 mb - 0.00 in0.0 mm 0.00 in0.0 mm
04:31 AM 55.4°F13.0°C 52.9°F11.6°C 91% 2.0 mph SW3.2 kmh SW 3.4 mph5.5 kmh 30.06 in1017.9 mb - 0.00 in0.0 mm 0.00 in0.0 mm
04:20 AM 55.4°F13.0°C 52.9°F11.6°C 91% 2.0 mph WSW3.2 kmh WSW 3.1 mph5.0 kmh 30.06 in1017.9 mb - 0.00 in0.0 mm 0.00 in0.0 mm
04:10 AM 55.2°F12.9°C 52.7°F11.5°C 91% 2.0 mph WSW3.2 kmh WSW 2.7 mph4.3 kmh 30.06 in1017.9 mb - 0.00 in0.0 mm 0.00 in0.0 mm
04:00 AM 55.2°F12.9°C 52.7°F11.5°C 91% 2.9 mph SW4.7 kmh SW 1.8 mph2.9 kmh 30.06 in1017.9 mb - 0.00 in0.0 mm 0.00 in0.0 mm
03:50 AM 55.0°F12.8°C 52.7°F11.5°C 92% 2.0 mph SW3.2 kmh SW 2.5 mph4.0 kmh 30.06 in1017.9 mb - 0.00 in0.0 mm 0.00 in0.0 mm
03:39 AM 55.0°F12.8°C 52.7°F11.5°C 92% 2.9 mph SW4.7 kmh SW 2.7 mph4.3 kmh 30.06 in1017.9 mb - 0.00 in0.0 mm 0.00 in0.0 mm
03:29 AM 54.9°F12.7°C 52.5°F11.4°C 92% 2.9 mph SW4.7 kmh SW 2.7 mph4.3 kmh 30.07 in1018.3 mb - 0.00 in0.0 mm 0.00 in0.0 mm
03:18 AM 54.9°F12.7°C 52.5°F11.4°C 92% 2.9 mph SW4.7 kmh SW 2.5 mph4.0 kmh 30.07 in1018.3 mb - 0.00 in0.0 mm 0.00 in0.0 mm
03:08 AM 54.7°F12.6°C 52.3°F11.3°C 92% 2.0 mph SW3.2 kmh SW 1.8 mph2.9 kmh 30.07 in1018.3 mb - 0.00 in0.0 mm 0.00 in0.0 mm
02:58 AM 54.7°F12.6°C 52.3°F11.3°C 92% 2.9 mph SW4.7 kmh SW 3.1 mph5.0 kmh 30.07 in1018.3 mb - 0.00 in0.0 mm 0.00 in0.0 mm
02:47 AM 54.7°F12.6°C 52.3°F11.3°C 92% 2.9 mph SW4.7 kmh SW 3.4 mph5.5 kmh 30.07 in1018.3 mb - 0.00 in0.0 mm 0.00 in0.0 mm
02:37 AM 54.7°F12.6°C 52.3°F11.3°C 92% 2.9 mph SW4.7 kmh SW 2.7 mph4.3 kmh 30.06 in1017.9 mb - 0.00 in0.0 mm 0.00 in0.0 mm
02:27 AM 54.7°F12.6°C 52.3°F11.3°C 92% 2.0 mph SW3.2 kmh SW 2.2 mph3.5 kmh 30.06 in1017.9 mb - 0.00 in0.0 mm 0.00 in0.0 mm
02:17 AM 54.9°F12.7°C 52.5°F11.4°C 92% 2.9 mph SW4.7 kmh SW 2.2 mph3.5 kmh 30.06 in1017.9 mb - 0.00 in0.0 mm 0.00 in0.0 mm
02:06 AM 54.9°F12.7°C 52.5°F11.4°C 92% 2.9 mph SW4.7 kmh SW 3.6 mph5.8 kmh 30.07 in1018.3 mb - 0.00 in0.0 mm 0.00 in0.0 mm
01:56 AM 55.0°F12.8°C 52.7°F11.5°C 92% 2.9 mph WSW4.7 kmh WSW 3.8 mph6.1 kmh 30.07 in1018.3 mb - 0.00 in0.0 mm 0.00 in0.0 mm
01:45 AM 55.2°F12.9°C 52.9°F11.6°C 92% 2.5 mph SSW4.0 kmh SSW 2.7 mph4.3 kmh 30.07 in1018.3 mb - 0.00 in0.0 mm 0.00 in0.0 mm
01:35 AM 55.2°F12.9°C 52.9°F11.6°C 92% 2.0 mph SW3.2 kmh SW 1.3 mph2.1 kmh 30.07 in1018.3 mb - 0.00 in0.0 mm 0.00 in0.0 mm
01:24 AM 55.4°F13.0°C 53.1°F11.7°C 92% 2.0 mph SSW3.2 kmh SSW 1.6 mph2.6 kmh 30.07 in1018.3 mb - 0.00 in0.0 mm 0.00 in0.0 mm
01:14 AM 55.6°F13.1°C 53.2°F11.8°C 92% 0.9 mph SW1.4 kmh SW 2.2 mph3.5 kmh 30.07 in1018.3 mb - 0.00 in0.0 mm 0.00 in0.0 mm
01:04 AM 55.8°F13.2°C 53.4°F11.9°C 92% 0.9 mph SW1.4 kmh SW 0.9 mph1.4 kmh 30.07 in1018.3 mb - 0.00 in0.0 mm 0.00 in0.0 mm
12:54 AM 55.9°F13.3°C 53.6°F12.0°C 92% 2.0 mph SW3.2 kmh SW 1.8 mph2.9 kmh 30.07 in1018.3 mb - 0.00 in0.0 mm 0.00 in0.0 mm
12:43 AM 55.9°F13.3°C 53.6°F12.0°C 92% 0.9 mph WSW1.4 kmh WSW 0.7 mph1.1 kmh 30.08 in1018.6 mb - 0.00 in0.0 mm 0.00 in0.0 mm
12:33 AM 56.1°F13.4°C 53.8°F12.1°C 92% 2.0 mph WSW3.2 kmh WSW 1.8 mph2.9 kmh 30.08 in1018.6 mb - 0.00 in0.0 mm 0.00 in0.0 mm
12:22 AM 56.1°F13.4°C 53.8°F12.1°C 92% 2.0 mph WSW3.2 kmh WSW 2.2 mph3.5 kmh 30.08 in1018.6 mb - 0.00 in0.0 mm 0.00 in0.0 mm
12:12 AM 56.3°F13.5°C 54.0°F12.2°C 92% 2.0 mph WSW3.2 kmh WSW 1.3 mph2.1 kmh 30.08 in1018.6 mb - 0.00 in0.0 mm 0.00 in0.0 mm
12:01 AM 56.5°F13.6°C 54.1°F12.3°C 92% 2.0 mph WSW3.2 kmh WSW 1.3 mph2.1 kmh 30.08 in1018.6 mb - 0.00 in0.0 mm 0.00 in0.0 mm